sensor_id;sensor_type;location;lat;lon;timestamp;P1;durP1;ratioP1;P2;durP2;ratioP2
48727;SDS011;34527;45.618;5.130;2023-05-16T00:01:20;17.25;;;13.23;;
48727;SDS011;34527;45.618;5.130;2023-05-16T00:03:47;17.65;;;13.93;;
48727;SDS011;34527;45.618;5.130;2023-05-16T00:06:12;18.67;;;14.32;;
48727;SDS011;34527;45.618;5.130;2023-05-16T00:08:39;15.35;;;13.25;;
48727;SDS011;34527;45.618;5.130;2023-05-16T00:11:05;17.20;;;14.98;;
48727;SDS011;34527;45.618;5.130;2023-05-16T00:13:30;16.75;;;13.77;;
48727;SDS011;34527;45.618;5.130;2023-05-16T00:15:56;16.58;;;13.98;;
48727;SDS011;34527;45.618;5.130;2023-05-16T00:18:23;18.70;;;13.73;;
48727;SDS011;34527;45.618;5.130;2023-05-16T00:20:50;17.90;;;13.80;;
48727;SDS011;34527;45.618;5.130;2023-05-16T00:23:16;17.40;;;14.18;;
48727;SDS011;34527;45.618;5.130;2023-05-16T00:25:41;15.98;;;14.30;;
48727;SDS011;34527;45.618;5.130;2023-05-16T00:28:07;21.42;;;15.23;;
48727;SDS011;34527;45.618;5.130;2023-05-16T00:30:33;17.45;;;15.18;;
48727;SDS011;34527;45.618;5.130;2023-05-16T00:32:59;19.02;;;15.00;;
48727;SDS011;34527;45.618;5.130;2023-05-16T00:35:24;22.42;;;14.77;;
48727;SDS011;34527;45.618;5.130;2023-05-16T00:37:50;21.42;;;15.45;;
48727;SDS011;34527;45.618;5.130;2023-05-16T00:40:16;20.25;;;15.55;;
48727;SDS011;34527;45.618;5.130;2023-05-16T00:42:42;19.48;;;15.23;;
48727;SDS011;34527;45.618;5.130;2023-05-16T00:45:08;18.33;;;15.70;;
48727;SDS011;34527;45.618;5.130;2023-05-16T00:47:35;20.70;;;16.42;;
48727;SDS011;34527;45.618;5.130;2023-05-16T00:50:01;19.48;;;15.82;;
48727;SDS011;34527;45.618;5.130;2023-05-16T00:52:28;22.45;;;16.02;;
48727;SDS011;34527;45.618;5.130;2023-05-16T00:54:55;22.40;;;17.42;;
48727;SDS011;34527;45.618;5.130;2023-05-16T00:57:21;22.48;;;17.23;;
48727;SDS011;34527;45.618;5.130;2023-05-16T00:59:47;23.67;;;16.83;;
48727;SDS011;34527;45.618;5.130;2023-05-16T01:02:13;21.77;;;16.45;;
48727;SDS011;34527;45.618;5.130;2023-05-16T01:04:39;20.90;;;16.92;;
48727;SDS011;34527;45.618;5.130;2023-05-16T01:07:06;26.83;;;18.30;;
48727;SDS011;34527;45.618;5.130;2023-05-16T01:09:32;24.35;;;17.20;;
48727;SDS011;34527;45.618;5.130;2023-05-16T01:12:06;21.83;;;17.30;;
48727;SDS011;34527;45.618;5.130;2023-05-16T01:14:55;24.15;;;17.45;;
48727;SDS011;34527;45.618;5.130;2023-05-16T01:17:44;24.38;;;17.48;;
48727;SDS011;34527;45.618;5.130;2023-05-16T01:28:43;26.23;;;19.00;;
48727;SDS011;34527;45.618;5.130;2023-05-16T01:31:12;24.90;;;17.83;;
48727;SDS011;34527;45.618;5.130;2023-05-16T01:33:38;22.13;;;16.52;;
48727;SDS011;34527;45.618;5.130;2023-05-16T01:39:01;24.15;;;18.52;;
48727;SDS011;34527;45.618;5.130;2023-05-16T01:44:28;25.90;;;18.67;;
48727;SDS011;34527;45.618;5.130;2023-05-16T01:47:00;27.50;;;19.55;;
48727;SDS011;34527;45.618;5.130;2023-05-16T01:49:34;23.67;;;18.08;;
48727;SDS011;34527;45.618;5.130;2023-05-16T01:52:09;25.50;;;18.73;;
48727;SDS011;34527;45.618;5.130;2023-05-16T01:54:39;28.77;;;18.98;;
48727;SDS011;34527;45.618;5.130;2023-05-16T01:57:09;26.95;;;18.67;;
48727;SDS011;34527;45.618;5.130;2023-05-16T01:59:36;26.27;;;18.73;;
48727;SDS011;34527;45.618;5.130;2023-05-16T02:02:03;27.27;;;19.08;;
48727;SDS011;34527;45.618;5.130;2023-05-16T02:04:28;25.60;;;18.85;;
48727;SDS011;34527;45.618;5.130;2023-05-16T02:06:54;27.83;;;19.67;;
48727;SDS011;34527;45.618;5.130;2023-05-16T02:09:20;28.92;;;19.60;;
48727;SDS011;34527;45.618;5.130;2023-05-16T02:11:46;28.27;;;18.95;;
48727;SDS011;34527;45.618;5.130;2023-05-16T02:14:12;25.42;;;19.20;;
48727;SDS011;34527;45.618;5.130;2023-05-16T02:16:38;26.10;;;19.02;;
48727;SDS011;34527;45.618;5.130;2023-05-16T02:19:03;29.02;;;18.83;;
48727;SDS011;34527;45.618;5.130;2023-05-16T02:21:29;28.88;;;19.63;;
48727;SDS011;34527;45.618;5.130;2023-05-16T02:23:55;27.15;;;19.23;;
48727;SDS011;34527;45.618;5.130;2023-05-16T02:26:20;26.75;;;19.40;;
48727;SDS011;34527;45.618;5.130;2023-05-16T02:28:46;27.90;;;19.15;;
48727;SDS011;34527;45.618;5.130;2023-05-16T02:31:24;28.50;;;19.33;;
48727;SDS011;34527;45.618;5.130;2023-05-16T02:33:53;29.42;;;19.23;;
48727;SDS011;34527;45.618;5.130;2023-05-16T02:36:19;26.85;;;18.38;;
48727;SDS011;34527;45.618;5.130;2023-05-16T02:38:45;25.83;;;18.98;;
48727;SDS011;34527;45.618;5.130;2023-05-16T02:41:11;34.97;;;19.52;;
48727;SDS011;34527;45.618;5.130;2023-05-16T02:43:36;28.55;;;20.10;;
48727;SDS011;34527;45.618;5.130;2023-05-16T02:46:18;29.70;;;19.05;;
48727;SDS011;34527;45.618;5.130;2023-05-16T02:48:45;28.08;;;19.15;;
48727;SDS011;34527;45.618;5.130;2023-05-16T02:51:10;31.13;;;20.40;;
48727;SDS011;34527;45.618;5.130;2023-05-16T02:53:36;25.58;;;19.98;;
48727;SDS011;34527;45.618;5.130;2023-05-16T02:56:02;29.50;;;19.52;;
48727;SDS011;34527;45.618;5.130;2023-05-16T02:58:30;29.55;;;20.65;;
48727;SDS011;34527;45.618;5.130;2023-05-16T03:00:56;28.90;;;20.98;;
48727;SDS011;34527;45.618;5.130;2023-05-16T03:03:22;28.13;;;19.52;;
48727;SDS011;34527;45.618;5.130;2023-05-16T03:05:48;29.42;;;20.17;;
48727;SDS011;34527;45.618;5.130;2023-05-16T03:08:14;26.48;;;19.77;;
48727;SDS011;34527;45.618;5.130;2023-05-16T03:10:39;28.33;;;19.83;;
48727;SDS011;34527;45.618;5.130;2023-05-16T03:13:05;29.00;;;20.30;;
48727;SDS011;34527;45.618;5.130;2023-05-16T03:15:31;28.73;;;20.52;;
48727;SDS011;34527;45.618;5.130;2023-05-16T03:17:56;26.00;;;20.35;;
48727;SDS011;34527;45.618;5.130;2023-05-16T03:20:22;29.63;;;20.90;;
48727;SDS011;34527;45.618;5.130;2023-05-16T03:22:47;32.92;;;20.58;;
48727;SDS011;34527;45.618;5.130;2023-05-16T03:25:13;32.38;;;21.13;;
48727;SDS011;34527;45.618;5.130;2023-05-16T03:27:39;30.42;;;20.27;;
48727;SDS011;34527;45.618;5.130;2023-05-16T03:30:04;30.42;;;20.85;;
48727;SDS011;34527;45.618;5.130;2023-05-16T03:32:31;33.65;;;20.48;;
48727;SDS011;34527;45.618;5.130;2023-05-16T03:34:57;33.35;;;20.27;;
48727;SDS011;34527;45.618;5.130;2023-05-16T03:37:23;31.52;;;21.73;;
48727;SDS011;34527;45.618;5.130;2023-05-16T03:39:48;31.20;;;21.20;;
48727;SDS011;34527;45.618;5.130;2023-05-16T03:42:14;32.15;;;20.85;;
48727;SDS011;34527;45.618;5.130;2023-05-16T03:44:40;33.05;;;21.98;;
48727;SDS011;34527;45.618;5.130;2023-05-16T03:47:05;31.85;;;22.27;;
48727;SDS011;34527;45.618;5.130;2023-05-16T03:49:31;33.95;;;20.77;;
48727;SDS011;34527;45.618;5.130;2023-05-16T03:51:57;33.50;;;21.20;;
48727;SDS011;34527;45.618;5.130;2023-05-16T03:54:22;35.58;;;22.05;;
48727;SDS011;34527;45.618;5.130;2023-05-16T03:56:48;33.53;;;21.92;;
48727;SDS011;34527;45.618;5.130;2023-05-16T03:59:14;30.67;;;21.73;;
48727;SDS011;34527;45.618;5.130;2023-05-16T04:01:39;34.80;;;22.17;;
48727;SDS011;34527;45.618;5.130;2023-05-16T04:04:05;29.67;;;20.38;;
48727;SDS011;34527;45.618;5.130;2023-05-16T04:06:31;29.45;;;20.85;;
48727;SDS011;34527;45.618;5.130;2023-05-16T04:08:56;28.92;;;20.52;;
48727;SDS011;34527;45.618;5.130;2023-05-16T04:11:22;26.55;;;19.70;;
48727;SDS011;34527;45.618;5.130;2023-05-16T04:13:47;29.73;;;20.23;;
48727;SDS011;34527;45.618;5.130;2023-05-16T04:16:13;28.20;;;18.70;;
48727;SDS011;34527;45.618;5.130;2023-05-16T04:18:38;35.05;;;20.40;;
48727;SDS011;34527;45.618;5.130;2023-05-16T04:21:05;35.42;;;21.17;;
48727;SDS011;34527;45.618;5.130;2023-05-16T04:23:31;32.10;;;19.42;;
48727;SDS011;34527;45.618;5.130;2023-05-16T04:25:57;30.25;;;19.38;;
48727;SDS011;34527;45.618;5.130;2023-05-16T04:28:22;33.40;;;21.17;;
48727;SDS011;34527;45.618;5.130;2023-05-16T04:30:48;34.20;;;21.63;;
48727;SDS011;34527;45.618;5.130;2023-05-16T04:33:14;32.30;;;21.60;;
48727;SDS011;34527;45.618;5.130;2023-05-16T04:35:40;35.80;;;20.65;;
48727;SDS011;34527;45.618;5.130;2023-05-16T04:38:06;35.45;;;21.17;;
48727;SDS011;34527;45.618;5.130;2023-05-16T04:40:32;31.60;;;22.15;;
48727;SDS011;34527;45.618;5.130;2023-05-16T04:42:59;35.33;;;21.95;;
48727;SDS011;34527;45.618;5.130;2023-05-16T04:45:24;32.78;;;21.42;;
48727;SDS011;34527;45.618;5.130;2023-05-16T04:47:50;32.72;;;20.80;;
48727;SDS011;34527;45.618;5.130;2023-05-16T04:50:16;34.72;;;21.83;;
48727;SDS011;34527;45.618;5.130;2023-05-16T04:52:42;34.15;;;22.00;;
48727;SDS011;34527;45.618;5.130;2023-05-16T04:55:08;33.05;;;21.85;;
48727;SDS011;34527;45.618;5.130;2023-05-16T04:57:34;31.73;;;19.85;;
48727;SDS011;34527;45.618;5.130;2023-05-16T05:00:00;33.17;;;21.33;;
48727;SDS011;34527;45.618;5.130;2023-05-16T05:02:25;34.03;;;20.17;;
48727;SDS011;34527;45.618;5.130;2023-05-16T05:04:51;30.63;;;21.10;;
48727;SDS011;34527;45.618;5.130;2023-05-16T05:07:17;34.28;;;20.35;;
48727;SDS011;34527;45.618;5.130;2023-05-16T05:09:42;36.53;;;21.77;;
48727;SDS011;34527;45.618;5.130;2023-05-16T05:12:10;32.20;;;20.63;;
48727;SDS011;34527;45.618;5.130;2023-05-16T05:14:35;32.08;;;20.65;;
48727;SDS011;34527;45.618;5.130;2023-05-16T05:17:01;30.38;;;20.98;;
48727;SDS011;34527;45.618;5.130;2023-05-16T05:19:27;32.97;;;20.85;;
48727;SDS011;34527;45.618;5.130;2023-05-16T05:21:52;31.67;;;20.23;;
48727;SDS011;34527;45.618;5.130;2023-05-16T05:24:18;35.85;;;20.52;;
48727;SDS011;34527;45.618;5.130;2023-05-16T05:26:43;32.25;;;19.70;;
48727;SDS011;34527;45.618;5.130;2023-05-16T05:29:09;30.88;;;19.40;;
48727;SDS011;34527;45.618;5.130;2023-05-16T05:31:34;30.95;;;19.52;;
48727;SDS011;34527;45.618;5.130;2023-05-16T05:34:01;35.97;;;20.73;;
48727;SDS011;34527;45.618;5.130;2023-05-16T05:36:27;31.58;;;19.35;;
48727;SDS011;34527;45.618;5.130;2023-05-16T05:38:52;32.63;;;20.40;;
48727;SDS011;34527;45.618;5.130;2023-05-16T05:41:18;31.05;;;19.55;;
48727;SDS011;34527;45.618;5.130;2023-05-16T05:43:43;30.67;;;20.13;;
48727;SDS011;34527;45.618;5.130;2023-05-16T05:46:09;30.40;;;19.52;;
48727;SDS011;34527;45.618;5.130;2023-05-16T05:48:35;35.47;;;20.92;;
48727;SDS011;34527;45.618;5.130;2023-05-16T05:51:00;35.03;;;21.23;;
48727;SDS011;34527;45.618;5.130;2023-05-16T05:53:26;31.77;;;20.48;;
48727;SDS011;34527;45.618;5.130;2023-05-16T05:55:52;34.88;;;20.65;;
48727;SDS011;34527;45.618;5.130;2023-05-16T05:58:17;34.63;;;20.00;;
48727;SDS011;34527;45.618;5.130;2023-05-16T06:00:43;32.88;;;20.02;;
48727;SDS011;34527;45.618;5.130;2023-05-16T06:03:09;34.30;;;21.13;;
48727;SDS011;34527;45.618;5.130;2023-05-16T06:05:34;27.80;;;18.95;;
48727;SDS011;34527;45.618;5.130;2023-05-16T06:08:00;30.92;;;19.65;;
48727;SDS011;34527;45.618;5.130;2023-05-16T06:10:25;35.20;;;19.80;;
48727;SDS011;34527;45.618;5.130;2023-05-16T06:12:51;35.95;;;20.30;;
48727;SDS011;34527;45.618;5.130;2023-05-16T06:15:17;34.00;;;19.73;;
48727;SDS011;34527;45.618;5.130;2023-05-16T06:17:42;32.45;;;18.98;;
48727;SDS011;34527;45.618;5.130;2023-05-16T06:20:08;33.88;;;19.83;;
48727;SDS011;34527;45.618;5.130;2023-05-16T06:22:34;31.58;;;20.23;;
48727;SDS011;34527;45.618;5.130;2023-05-16T06:24:59;32.80;;;20.30;;
48727;SDS011;34527;45.618;5.130;2023-05-16T06:27:25;33.72;;;19.23;;
48727;SDS011;34527;45.618;5.130;2023-05-16T06:29:51;37.47;;;19.17;;
48727;SDS011;34527;45.618;5.130;2023-05-16T06:32:17;31.25;;;19.08;;
48727;SDS011;34527;45.618;5.130;2023-05-16T06:34:42;30.95;;;19.20;;
48727;SDS011;34527;45.618;5.130;2023-05-16T06:37:08;30.25;;;19.58;;
48727;SDS011;34527;45.618;5.130;2023-05-16T06:39:33;30.58;;;18.05;;
48727;SDS011;34527;45.618;5.130;2023-05-16T06:41:59;33.72;;;18.80;;
48727;SDS011;34527;45.618;5.130;2023-05-16T06:44:25;29.27;;;18.05;;
48727;SDS011;34527;45.618;5.130;2023-05-16T06:46:51;32.25;;;19.33;;
48727;SDS011;34527;45.618;5.130;2023-05-16T06:49:17;30.65;;;19.30;;
48727;SDS011;34527;45.618;5.130;2023-05-16T06:51:42;26.80;;;17.25;;
48727;SDS011;34527;45.618;5.130;2023-05-16T06:54:08;27.52;;;17.65;;
48727;SDS011;34527;45.618;5.130;2023-05-16T06:56:33;31.50;;;17.80;;
48727;SDS011;34527;45.618;5.130;2023-05-16T06:58:59;32.22;;;17.92;;
48727;SDS011;34527;45.618;5.130;2023-05-16T07:01:25;29.45;;;17.90;;
48727;SDS011;34527;45.618;5.130;2023-05-16T07:03:52;28.10;;;17.33;;
48727;SDS011;34527;45.618;5.130;2023-05-16T07:06:18;30.52;;;18.10;;
48727;SDS011;34527;45.618;5.130;2023-05-16T07:08:43;25.88;;;16.38;;
48727;SDS011;34527;45.618;5.130;2023-05-16T07:11:09;29.45;;;17.25;;
48727;SDS011;34527;45.618;5.130;2023-05-16T07:13:35;30.20;;;17.02;;
48727;SDS011;34527;45.618;5.130;2023-05-16T07:16:01;28.40;;;17.33;;
48727;SDS011;34527;45.618;5.130;2023-05-16T07:18:27;32.75;;;16.63;;
48727;SDS011;34527;45.618;5.130;2023-05-16T07:20:53;30.98;;;16.23;;
48727;SDS011;34527;45.618;5.130;2023-05-16T07:23:18;27.50;;;16.80;;
48727;SDS011;34527;45.618;5.130;2023-05-16T07:25:44;25.90;;;16.33;;
48727;SDS011;34527;45.618;5.130;2023-05-16T07:28:10;27.25;;;17.38;;
48727;SDS011;34527;45.618;5.130;2023-05-16T07:30:35;24.73;;;16.25;;
48727;SDS011;34527;45.618;5.130;2023-05-16T07:33:01;30.23;;;16.05;;
48727;SDS011;34527;45.618;5.130;2023-05-16T07:35:26;29.80;;;15.40;;
48727;SDS011;34527;45.618;5.130;2023-05-16T07:37:52;24.80;;;16.02;;
48727;SDS011;34527;45.618;5.130;2023-05-16T07:40:17;25.00;;;16.27;;
48727;SDS011;34527;45.618;5.130;2023-05-16T07:42:45;26.15;;;16.08;;
48727;SDS011;34527;45.618;5.130;2023-05-16T07:45:10;27.98;;;15.50;;
48727;SDS011;34527;45.618;5.130;2023-05-16T07:47:36;23.75;;;14.10;;
48727;SDS011;34527;45.618;5.130;2023-05-16T07:50:01;23.65;;;14.82;;
48727;SDS011;34527;45.618;5.130;2023-05-16T07:52:27;23.05;;;14.82;;
48727;SDS011;34527;45.618;5.130;2023-05-16T07:54:53;22.98;;;14.68;;
48727;SDS011;34527;45.618;5.130;2023-05-16T07:57:18;24.77;;;14.80;;
48727;SDS011;34527;45.618;5.130;2023-05-16T07:59:44;24.33;;;15.07;;
48727;SDS011;34527;45.618;5.130;2023-05-16T08:02:10;23.55;;;15.07;;
48727;SDS011;34527;45.618;5.130;2023-05-16T08:04:36;21.75;;;14.00;;
48727;SDS011;34527;45.618;5.130;2023-05-16T08:07:02;21.33;;;13.63;;
48727;SDS011;34527;45.618;5.130;2023-05-16T08:09:28;20.42;;;13.82;;
48727;SDS011;34527;45.618;5.130;2023-05-16T08:11:53;23.60;;;15.00;;
48727;SDS011;34527;45.618;5.130;2023-05-16T08:14:19;24.60;;;14.68;;
48727;SDS011;34527;45.618;5.130;2023-05-16T08:16:45;22.88;;;13.95;;
48727;SDS011;34527;45.618;5.130;2023-05-16T08:19:10;23.23;;;13.82;;
48727;SDS011;34527;45.618;5.130;2023-05-16T08:21:36;23.67;;;14.25;;
48727;SDS011;34527;45.618;5.130;2023-05-16T08:24:02;26.98;;;14.10;;
48727;SDS011;34527;45.618;5.130;2023-05-16T08:26:29;25.08;;;14.18;;
48727;SDS011;34527;45.618;5.130;2023-05-16T08:28:55;22.08;;;13.77;;
48727;SDS011;34527;45.618;5.130;2023-05-16T08:31:21;24.75;;;13.90;;
48727;SDS011;34527;45.618;5.130;2023-05-16T08:33:46;21.60;;;13.52;;
48727;SDS011;34527;45.618;5.130;2023-05-16T08:36:12;22.05;;;13.90;;
48727;SDS011;34527;45.618;5.130;2023-05-16T08:38:39;19.30;;;13.00;;
48727;SDS011;34527;45.618;5.130;2023-05-16T08:41:05;21.92;;;13.07;;
48727;SDS011;34527;45.618;5.130;2023-05-16T08:43:31;23.15;;;13.43;;
48727;SDS011;34527;45.618;5.130;2023-05-16T08:45:59;22.95;;;13.40;;
48727;SDS011;34527;45.618;5.130;2023-05-16T08:48:24;23.25;;;13.27;;
48727;SDS011;34527;45.618;5.130;2023-05-16T08:50:52;23.05;;;13.60;;
48727;SDS011;34527;45.618;5.130;2023-05-16T08:53:21;22.80;;;12.95;;
48727;SDS011;34527;45.618;5.130;2023-05-16T08:55:49;21.58;;;12.30;;
48727;SDS011;34527;45.618;5.130;2023-05-16T08:58:16;20.60;;;12.93;;
48727;SDS011;34527;45.618;5.130;2023-05-16T09:00:43;22.40;;;12.70;;
48727;SDS011;34527;45.618;5.130;2023-05-16T09:03:09;19.58;;;11.93;;
48727;SDS011;34527;45.618;5.130;2023-05-16T09:05:35;23.52;;;13.07;;
48727;SDS011;34527;45.618;5.130;2023-05-16T09:08:02;23.02;;;13.48;;
48727;SDS011;34527;45.618;5.130;2023-05-16T09:10:27;23.95;;;13.05;;
48727;SDS011;34527;45.618;5.130;2023-05-16T09:12:53;24.13;;;12.38;;
48727;SDS011;34527;45.618;5.130;2023-05-16T09:15:19;21.10;;;13.13;;
48727;SDS011;34527;45.618;5.130;2023-05-16T09:17:45;24.48;;;13.57;;
48727;SDS011;34527;45.618;5.130;2023-05-16T09:20:12;22.90;;;13.23;;
48727;SDS011;34527;45.618;5.130;2023-05-16T09:22:40;19.80;;;13.32;;
48727;SDS011;34527;45.618;5.130;2023-05-16T09:25:17;25.90;;;13.38;;
48727;SDS011;34527;45.618;5.130;2023-05-16T09:27:47;23.42;;;13.05;;
48727;SDS011;34527;45.618;5.130;2023-05-16T09:30:20;23.25;;;13.75;;
48727;SDS011;34527;45.618;5.130;2023-05-16T09:32:50;22.25;;;14.02;;
48727;SDS011;34527;45.618;5.130;2023-05-16T09:35:18;20.92;;;12.90;;
48727;SDS011;34527;45.618;5.130;2023-05-16T09:37:45;24.40;;;13.70;;
48727;SDS011;34527;45.618;5.130;2023-05-16T09:40:12;23.58;;;13.05;;
48727;SDS011;34527;45.618;5.130;2023-05-16T09:42:38;21.65;;;13.10;;
48727;SDS011;34527;45.618;5.130;2023-05-16T09:45:04;27.23;;;13.63;;
48727;SDS011;34527;45.618;5.130;2023-05-16T09:47:30;23.48;;;14.13;;
48727;SDS011;34527;45.618;5.130;2023-05-16T09:49:56;24.00;;;14.27;;
48727;SDS011;34527;45.618;5.130;2023-05-16T09:52:25;24.90;;;13.70;;
48727;SDS011;34527;45.618;5.130;2023-05-16T09:54:51;25.42;;;15.25;;
48727;SDS011;34527;45.618;5.130;2023-05-16T09:57:19;23.73;;;15.32;;
48727;SDS011;34527;45.618;5.130;2023-05-16T09:59:45;24.80;;;15.13;;
48727;SDS011;34527;45.618;5.130;2023-05-16T10:02:11;22.35;;;13.75;;
48727;SDS011;34527;45.618;5.130;2023-05-16T10:04:38;23.52;;;14.65;;
48727;SDS011;34527;45.618;5.130;2023-05-16T10:07:04;26.45;;;16.17;;
48727;SDS011;34527;45.618;5.130;2023-05-16T10:09:34;22.65;;;15.05;;
48727;SDS011;34527;45.618;5.130;2023-05-16T10:12:02;26.67;;;15.73;;
48727;SDS011;34527;45.618;5.130;2023-05-16T10:14:33;25.35;;;16.23;;
48727;SDS011;34527;45.618;5.130;2023-05-16T10:17:01;26.05;;;14.90;;
48727;SDS011;34527;45.618;5.130;2023-05-16T10:19:29;24.38;;;15.13;;
48727;SDS011;34527;45.618;5.130;2023-05-16T10:21:57;25.85;;;15.18;;
48727;SDS011;34527;45.618;5.130;2023-05-16T10:24:47;25.02;;;15.43;;
48727;SDS011;34527;45.618;5.130;2023-05-16T10:27:22;27.48;;;14.95;;
48727;SDS011;34527;45.618;5.130;2023-05-16T10:29:49;25.67;;;15.25;;
48727;SDS011;34527;45.618;5.130;2023-05-16T10:32:17;25.23;;;14.75;;
48727;SDS011;34527;45.618;5.130;2023-05-16T10:34:44;24.02;;;14.77;;
48727;SDS011;34527;45.618;5.130;2023-05-16T10:37:10;24.23;;;14.40;;
48727;SDS011;34527;45.618;5.130;2023-05-16T10:39:36;24.48;;;15.38;;
48727;SDS011;34527;45.618;5.130;2023-05-16T10:42:03;21.30;;;14.07;;
48727;SDS011;34527;45.618;5.130;2023-05-16T10:44:31;22.17;;;14.57;;
48727;SDS011;34527;45.618;5.130;2023-05-16T10:46:58;24.17;;;14.68;;
48727;SDS011;34527;45.618;5.130;2023-05-16T10:49:25;22.58;;;14.60;;
48727;SDS011;34527;45.618;5.130;2023-05-16T10:52:10;19.80;;;13.32;;
48727;SDS011;34527;45.618;5.130;2023-05-16T10:54:40;22.52;;;14.25;;
48727;SDS011;34527;45.618;5.130;2023-05-16T10:59:48;21.55;;;14.05;;
48727;SDS011;34527;45.618;5.130;2023-05-16T11:02:22;24.58;;;12.98;;
48727;SDS011;34527;45.618;5.130;2023-05-16T11:04:50;21.17;;;13.68;;
48727;SDS011;34527;45.618;5.130;2023-05-16T11:07:17;21.77;;;12.02;;
48727;SDS011;34527;45.618;5.130;2023-05-16T11:09:44;19.45;;;11.85;;
48727;SDS011;34527;45.618;5.130;2023-05-16T11:12:17;18.55;;;11.68;;
48727;SDS011;34527;45.618;5.130;2023-05-16T11:14:46;16.50;;;10.82;;
48727;SDS011;34527;45.618;5.130;2023-05-16T11:17:22;18.23;;;11.32;;
48727;SDS011;34527;45.618;5.130;2023-05-16T11:19:49;18.27;;;10.40;;
48727;SDS011;34527;45.618;5.130;2023-05-16T11:24:49;16.58;;;9.88;;
48727;SDS011;34527;45.618;5.130;2023-05-16T11:27:43;13.88;;;9.45;;
48727;SDS011;34527;45.618;5.130;2023-05-16T11:30:14;17.88;;;9.07;;
48727;SDS011;34527;45.618;5.130;2023-05-16T11:32:45;15.43;;;9.52;;
48727;SDS011;34527;45.618;5.130;2023-05-16T11:35:15;16.08;;;9.43;;
48727;SDS011;34527;45.618;5.130;2023-05-16T11:37:42;14.50;;;8.88;;
48727;SDS011;34527;45.618;5.130;2023-05-16T11:40:09;15.00;;;8.93;;
48727;SDS011;34527;45.618;5.130;2023-05-16T11:42:37;12.45;;;8.68;;
48727;SDS011;34527;45.618;5.130;2023-05-16T11:45:05;15.63;;;9.20;;
48727;SDS011;34527;45.618;5.130;2023-05-16T11:47:31;10.73;;;8.30;;
48727;SDS011;34527;45.618;5.130;2023-05-16T11:49:57;14.07;;;9.40;;
48727;SDS011;34527;45.618;5.130;2023-05-16T11:52:23;15.75;;;9.90;;
48727;SDS011;34527;45.618;5.130;2023-05-16T11:54:50;14.52;;;8.95;;
48727;SDS011;34527;45.618;5.130;2023-05-16T11:57:16;13.15;;;9.05;;
48727;SDS011;34527;45.618;5.130;2023-05-16T11:59:41;14.32;;;8.40;;
48727;SDS011;34527;45.618;5.130;2023-05-16T12:02:07;16.52;;;9.10;;
48727;SDS011;34527;45.618;5.130;2023-05-16T12:04:34;13.85;;;8.90;;
48727;SDS011;34527;45.618;5.130;2023-05-16T12:07:02;11.07;;;8.32;;
48727;SDS011;34527;45.618;5.130;2023-05-16T12:09:28;13.70;;;8.43;;
48727;SDS011;34527;45.618;5.130;2023-05-16T12:11:54;12.98;;;8.82;;
48727;SDS011;34527;45.618;5.130;2023-05-16T12:14:19;11.95;;;8.07;;
48727;SDS011;34527;45.618;5.130;2023-05-16T12:16:46;11.25;;;7.60;;
48727;SDS011;34527;45.618;5.130;2023-05-16T12:19:13;12.55;;;7.90;;
48727;SDS011;34527;45.618;5.130;2023-05-16T12:21:39;10.93;;;8.10;;
48727;SDS011;34527;45.618;5.130;2023-05-16T12:24:04;13.75;;;8.32;;
48727;SDS011;34527;45.618;5.130;2023-05-16T12:26:33;12.32;;;7.82;;
48727;SDS011;34527;45.618;5.130;2023-05-16T12:29:00;14.57;;;7.55;;
48727;SDS011;34527;45.618;5.130;2023-05-16T12:31:30;12.45;;;7.63;;
48727;SDS011;34527;45.618;5.130;2023-05-16T12:34:00;11.30;;;7.47;;
48727;SDS011;34527;45.618;5.130;2023-05-16T12:36:29;11.85;;;7.75;;
48727;SDS011;34527;45.618;5.130;2023-05-16T12:38:59;12.02;;;7.68;;
48727;SDS011;34527;45.618;5.130;2023-05-16T12:41:25;11.07;;;7.55;;
48727;SDS011;34527;45.618;5.130;2023-05-16T12:43:51;12.05;;;7.03;;
48727;SDS011;34527;45.618;5.130;2023-05-16T12:46:34;12.55;;;7.93;;
48727;SDS011;34527;45.618;5.130;2023-05-16T12:49:01;13.13;;;7.85;;
48727;SDS011;34527;45.618;5.130;2023-05-16T12:51:29;11.15;;;7.38;;
48727;SDS011;34527;45.618;5.130;2023-05-16T12:53:56;15.40;;;7.82;;
48727;SDS011;34527;45.618;5.130;2023-05-16T12:58:56;9.88;;;6.30;;
48727;SDS011;34527;45.618;5.130;2023-05-16T13:01:22;10.48;;;6.68;;
48727;SDS011;34527;45.618;5.130;2023-05-16T13:03:47;10.00;;;7.00;;
48727;SDS011;34527;45.618;5.130;2023-05-16T13:06:13;12.85;;;7.70;;
48727;SDS011;34527;45.618;5.130;2023-05-16T13:08:38;11.18;;;7.13;;
48727;SDS011;34527;45.618;5.130;2023-05-16T13:11:04;11.43;;;7.38;;
48727;SDS011;34527;45.618;5.130;2023-05-16T13:13:30;12.00;;;7.40;;
48727;SDS011;34527;45.618;5.130;2023-05-16T13:15:55;10.05;;;6.40;;
48727;SDS011;34527;45.618;5.130;2023-05-16T13:18:21;9.30;;;6.57;;
48727;SDS011;34527;45.618;5.130;2023-05-16T13:20:47;9.32;;;6.25;;
48727;SDS011;34527;45.618;5.130;2023-05-16T13:23:13;10.90;;;6.82;;
48727;SDS011;34527;45.618;5.130;2023-05-16T13:25:39;9.40;;;6.70;;
48727;SDS011;34527;45.618;5.130;2023-05-16T13:28:04;10.55;;;6.63;;
48727;SDS011;34527;45.618;5.130;2023-05-16T13:30:30;9.10;;;6.15;;
48727;SDS011;34527;45.618;5.130;2023-05-16T13:32:56;11.55;;;5.82;;
48727;SDS011;34527;45.618;5.130;2023-05-16T13:35:22;10.07;;;5.95;;
48727;SDS011;34527;45.618;5.130;2023-05-16T13:37:48;6.28;;;5.40;;
48727;SDS011;34527;45.618;5.130;2023-05-16T13:40:13;6.22;;;4.90;;
48727;SDS011;34527;45.618;5.130;2023-05-16T13:42:39;10.88;;;5.00;;
48727;SDS011;34527;45.618;5.130;2023-05-16T13:45:05;7.38;;;4.45;;
48727;SDS011;34527;45.618;5.130;2023-05-16T13:47:31;9.45;;;4.35;;
48727;SDS011;34527;45.618;5.130;2023-05-16T13:49:57;5.78;;;4.55;;
48727;SDS011;34527;45.618;5.130;2023-05-16T13:52:30;5.70;;;4.60;;
48727;SDS011;34527;45.618;5.130;2023-05-16T13:54:56;7.53;;;5.10;;
48727;SDS011;34527;45.618;5.130;2023-05-16T13:57:21;8.90;;;5.65;;
48727;SDS011;34527;45.618;5.130;2023-05-16T13:59:47;10.07;;;5.40;;
48727;SDS011;34527;45.618;5.130;2023-05-16T14:02:13;8.00;;;5.40;;
48727;SDS011;34527;45.618;5.130;2023-05-16T14:04:39;7.75;;;5.25;;
48727;SDS011;34527;45.618;5.130;2023-05-16T14:07:05;8.13;;;5.18;;
48727;SDS011;34527;45.618;5.130;2023-05-16T14:09:31;9.23;;;5.22;;
48727;SDS011;34527;45.618;5.130;2023-05-16T14:11:58;10.48;;;5.30;;
48727;SDS011;34527;45.618;5.130;2023-05-16T14:14:26;9.05;;;5.88;;
48727;SDS011;34527;45.618;5.130;2023-05-16T14:16:52;6.80;;;5.35;;
48727;SDS011;34527;45.618;5.130;2023-05-16T14:19:18;7.90;;;5.03;;
48727;SDS011;34527;45.618;5.130;2023-05-16T14:21:43;7.10;;;4.63;;
48727;SDS011;34527;45.618;5.130;2023-05-16T14:24:09;10.02;;;5.43;;
48727;SDS011;34527;45.618;5.130;2023-05-16T14:26:35;9.45;;;5.28;;
48727;SDS011;34527;45.618;5.130;2023-05-16T14:29:01;9.55;;;5.63;;
48727;SDS011;34527;45.618;5.130;2023-05-16T14:31:27;9.10;;;5.30;;
48727;SDS011;34527;45.618;5.130;2023-05-16T14:33:52;10.38;;;5.78;;
48727;SDS011;34527;45.618;5.130;2023-05-16T14:36:18;8.30;;;4.90;;
48727;SDS011;34527;45.618;5.130;2023-05-16T14:38:44;7.80;;;4.95;;
48727;SDS011;34527;45.618;5.130;2023-05-16T14:41:09;9.15;;;5.30;;
48727;SDS011;34527;45.618;5.130;2023-05-16T14:43:35;7.38;;;4.93;;
48727;SDS011;34527;45.618;5.130;2023-05-16T14:46:02;9.68;;;5.13;;